Time;durP1;ratioP1;P1;durP2;ratioP2;P2;SDS_P1;SDS_P2;PMS_P1;PMS_P2;Temp;Humidity;BMP_temperature;BMP_pressure;BME280_temperature;BME280_humidity;BME280_pressure;Samples;Min_cycle;Max_cycle;Signal;HPM_P1;HPM_P2
2021/12/14 00:01:11;;;;;;;;;14.75;13.00;;;;;7.49;75.75;102498.47;4997611;28;47093;-70
2021/12/14 00:03:40;;;;;;;;;19.25;14.00;;;;;7.37;75.60;102479.28;4999389;28;45491;-69
2021/12/14 00:06:07;;;;;;;;;14.75;12.00;;;;;7.43;75.79;102490.19;4999330;28;45351;-70
2021/12/14 00:08:37;;;;;;;;;15.75;15.50;;;;;7.41;76.10;102481.28;5013800;28;45353;-69
2021/12/14 00:16:04;;;;;;;;;14.00;12.50;;;;;7.30;75.30;102484.94;4998863;28;45428;-70
2021/12/14 00:18:32;;;;;;;;;15.00;13.00;;;;;7.37;76.33;102508.22;4999135;28;45322;-70
2021/12/14 00:21:04;;;;;;;;;13.75;11.25;;;;;7.36;75.70;102514.25;4997379;28;46578;-70
2021/12/14 00:26:18;;;;;;;;;13.50;9.75;;;;;7.22;75.74;102505.47;4998798;28;45721;-70
2021/12/14 00:28:44;;;;;;;;;14.50;12.50;;;;;7.23;75.75;102481.00;4999084;28;45358;-70
2021/12/14 00:31:15;;;;;;;;;7.00;7.00;;;;;7.30;76.15;102487.56;4996366;28;47269;-70
2021/12/14 00:33:42;;;;;;;;;17.75;13.25;;;;;7.29;75.91;102491.91;4999030;28;45493;-70
2021/12/14 00:36:11;;;;;;;;;19.25;13.50;;;;;7.23;76.04;102485.38;4998484;28;45334;-70
2021/12/14 00:38:38;;;;;;;;;18.25;14.50;;;;;7.15;76.55;102470.00;4998785;28;45386;-69
2021/12/14 00:41:10;;;;;;;;;17.75;16.50;;;;;7.27;76.22;102484.75;4998347;28;46431;-70
2021/12/14 00:43:35;;;;;;;;;20.75;16.00;;;;;7.16;76.32;102479.69;4995758;28;45357;-70
2021/12/14 00:46:02;;;;;;;;;19.75;15.00;;;;;7.18;76.13;102479.78;4998566;28;45452;-70
2021/12/14 00:48:27;;;;;;;;;14.50;13.00;;;;;7.23;76.43;102491.53;4998735;28;45598;-70
2021/12/14 00:50:58;;;;;;;;;12.25;12.25;;;;;7.19;76.00;102478.97;4998524;28;47799;-69
2021/12/14 00:53:24;;;;;;;;;18.50;14.25;;;;;7.14;76.03;102464.59;4998207;28;45369;-69
2021/12/14 00:55:53;;;;;;;;;15.00;13.25;;;;;7.29;76.35;102491.91;4997522;28;45326;-69
2021/12/14 00:58:19;;;;;;;;;11.75;9.50;;;;;7.19;76.03;102478.97;4998345;28;45235;-69
2021/12/14 01:00:50;;;;;;;;;18.75;16.25;;;;;7.23;76.92;102472.22;4998973;28;45311;-69
2021/12/14 01:03:16;;;;;;;;;20.00;20.00;;;;;7.28;76.83;102484.84;4999911;28;45150;-69
2021/12/14 01:05:45;;;;;;;;;22.50;17.25;;;;;7.32;76.16;102486.84;5002380;28;45290;-69
2021/12/14 01:08:14;;;;;;;;;14.00;11.25;;;;;7.30;76.51;102498.09;5001082;28;45412;-70
2021/12/14 01:11:11;;;;;;;;;18.00;14.25;;;;;7.32;76.65;102492.13;5017196;28;47358;-70
2021/12/14 01:13:42;;;;;;;;;26.25;20.50;;;;;7.21;77.00;102476.47;4989463;28;44972;-70
2021/12/14 01:16:18;;;;;;;;;26.50;18.25;;;;;7.24;76.37;102493.34;5016669;28;45356;-70
2021/12/14 01:19:01;;;;;;;;;20.75;14.25;;;;;7.16;75.63;102479.69;5002053;28;45486;-70
2021/12/14 01:24:09;;;;;;;;;16.50;14.75;;;;;7.18;75.97;102500.84;5001560;28;45249;-70
2021/12/14 01:26:39;;;;;;;;;18.75;16.75;;;;;7.22;76.25;102504.56;5001453;28;45497;-70
2021/12/14 01:29:10;;;;;;;;;13.00;11.75;;;;;7.31;75.88;102507.78;5001823;28;45365;-70
2021/12/14 01:31:40;;;;;;;;;12.75;9.50;;;;;7.29;76.02;102514.69;5001403;28;45371;-70
2021/12/14 01:34:10;;;;;;;;;7.00;7.00;;;;;7.22;75.95;102513.34;5001575;28;45706;-70
2021/12/14 01:36:42;;;;;;;;;9.00;9.00;;;;;7.21;75.62;102529.06;5001204;28;45491;-70
2021/12/14 01:39:34;;;;;;;;;15.25;9.50;;;;;7.24;75.84;102550.28;5001222;28;45361;-70
2021/12/14 01:42:37;;;;;;;;;15.50;10.75;;;;;7.22;75.94;102546.66;5000911;28;45422;-70
2021/12/14 01:45:11;;;;;;;;;11.25;7.25;;;;;7.21;76.68;102543.09;4979470;28;45961;-70
2021/12/14 01:47:45;;;;;;;;;14.00;13.50;;;;;7.22;76.62;102554.53;4996668;28;45377;-71
2021/12/14 01:50:17;;;;;;;;;19.75;15.50;;;;;7.17;75.55;102541.09;5000054;28;46273;-70
2021/12/14 01:52:43;;;;;;;;;12.00;11.50;;;;;7.25;76.20;102560.91;4991364;28;46350;-70
2021/12/14 01:55:13;;;;;;;;;8.75;8.25;;;;;7.21;76.54;102555.34;5001242;28;45423;-70
2021/12/14 01:57:39;;;;;;;;;12.25;12.00;;;;;7.21;75.96;102563.25;4997128;28;45579;-70
2021/12/14 02:00:11;;;;;;;;;8.50;8.25;;;;;7.27;76.03;102579.44;5016541;28;47072;-70
2021/12/14 02:02:42;;;;;;;;;12.00;12.00;;;;;7.21;76.78;102572.03;5000786;28;45479;-70
2021/12/14 02:05:19;;;;;;;;;15.75;10.00;;;;;7.26;76.55;102582.88;5016480;28;45285;-70
2021/12/14 02:07:45;;;;;;;;;14.25;13.00;;;;;7.16;76.23;102576.06;5000578;28;45440;-70
2021/12/14 02:10:18;;;;;;;;;17.50;13.75;;;;;7.13;76.95;102581.13;5000666;28;45428;-71
2021/12/14 02:12:44;;;;;;;;;17.50;14.00;;;;;7.22;77.27;102600.16;4991530;28;47283;-71
2021/12/14 02:15:16;;;;;;;;;14.75;14.50;;;;;7.09;77.34;102577.41;4998624;28;45310;-70
2021/12/14 02:17:42;;;;;;;;;19.25;14.75;;;;;7.15;77.03;102587.41;5000544;28;45402;-70
2021/12/14 02:20:10;;;;;;;;;15.00;11.00;;;;;7.24;76.17;102588.03;5000979;28;45213;-70
2021/12/14 02:22:36;;;;;;;;;15.00;12.50;;;;;7.27;77.50;102590.84;5000267;28;46476;-70
2021/12/14 02:25:04;;;;;;;;;13.75;10.25;;;;;7.24;76.03;102569.63;5000725;28;45262;-70
2021/12/14 02:27:39;;;;;;;;;12.00;12.00;;;;;7.27;77.05;102563.66;4998932;28;45555;-71
2021/12/14 02:30:11;;;;;;;;;17.00;12.75;;;;;7.25;77.04;102545.13;5000901;28;45469;-71
2021/12/14 02:32:36;;;;;;;;;14.00;12.00;;;;;7.29;76.01;102543.63;4999945;28;45466;-70
2021/12/14 02:35:06;;;;;;;;;24.75;17.00;;;;;7.20;76.73;102524.59;5015853;28;45910;-71
2021/12/14 02:37:49;;;;;;;;;17.50;14.25;;;;;7.24;77.00;102538.06;5000127;28;45270;-70
2021/12/14 02:40:20;;;;;;;;;18.00;14.25;;;;;7.32;77.06;102547.34;5000425;28;44684;-70
2021/12/14 02:42:51;;;;;;;;;16.75;15.00;;;;;7.23;77.85;102532.72;4995687;28;46055;-70
2021/12/14 02:45:22;;;;;;;;;14.75;11.50;;;;;7.35;77.37;102547.56;5000625;28;45264;-71
2021/12/14 02:47:47;;;;;;;;;27.00;25.25;;;;;7.31;76.92;102528.81;5000224;28;45440;-70
2021/12/14 02:50:13;;;;;;;;;16.25;15.00;;;;;7.32;76.46;102541.19;5000639;28;45345;-71
2021/12/14 02:52:40;;;;;;;;;20.25;14.75;;;;;7.42;76.94;102553.22;4999733;28;46505;-70
2021/12/14 02:55:20;;;;;;;;;15.75;14.00;;;;;7.36;76.82;102533.56;5000139;28;45360;-70
2021/12/14 02:57:51;;;;;;;;;22.50;18.00;;;;;7.32;77.01;102517.53;4999884;28;45449;-70
2021/12/14 03:00:29;;;;;;;;;20.00;14.75;;;;;7.46;77.08;102526.31;5000428;28;45289;-70
2021/12/14 03:02:56;;;;;;;;;18.00;15.50;;;;;7.48;76.61;102517.69;4999712;28;46619;-70
2021/12/14 03:05:28;;;;;;;;;21.75;16.75;;;;;7.43;76.85;102505.97;5000128;28;45325;-70
2021/12/14 03:08:00;;;;;;;;;12.25;12.25;;;;;7.44;75.95;102520.03;4999715;28;45248;-71
2021/12/14 03:10:37;;;;;;;;;17.25;16.75;;;;;7.41;76.41;102523.38;4999816;28;45352;-71
2021/12/14 03:13:07;;;;;;;;;12.75;11.00;;;;;7.35;75.95;102505.47;4999500;28;46779;-71
2021/12/14 03:15:46;;;;;;;;;15.50;14.00;;;;;7.44;76.63;102536.72;4998984;28;45400;-71
2021/12/14 03:18:14;;;;;;;;;18.25;14.25;;;;;7.32;76.30;102501.72;4992960;28;45483;-71
2021/12/14 03:20:45;;;;;;;;;14.50;13.00;;;;;7.41;76.73;102526.00;5015478;28;47318;-71
2021/12/14 03:23:18;;;;;;;;;21.25;17.75;;;;;7.34;75.68;102516.81;4998972;28;46258;-71
2021/12/14 03:25:47;;;;;;;;;19.50;15.00;;;;;7.37;77.23;102516.09;4999921;28;45325;-68
2021/12/14 03:28:15;;;;;;;;;14.00;14.00;;;;;7.35;76.01;102523.88;4999303;28;45474;-71
2021/12/14 03:30:47;;;;;;;;;14.25;14.00;;;;;7.38;75.94;102523.16;5000124;28;47255;-69
2021/12/14 03:33:18;;;;;;;;;13.00;11.75;;;;;7.41;76.88;102526.00;4991950;28;47235;-69
2021/12/14 03:35:51;;;;;;;;;18.00;15.50;;;;;7.33;76.98;102491.28;5015102;28;45313;-69
2021/12/14 03:38:30;;;;;;;;;20.00;14.75;;;;;7.44;76.17;102512.13;4999152;28;45522;-69
2021/12/14 03:41:06;;;;;;;;;20.00;16.75;;;;;7.43;76.47;102516.50;4999219;28;45318;-69
2021/12/14 03:43:32;;;;;;;;;21.00;16.25;;;;;7.41;76.47;102523.38;4996839;28;46346;-69
2021/12/14 03:45:58;;;;;;;;;14.25;13.00;;;;;7.28;76.29;102499.69;5014468;28;45250;-69
2021/12/14 03:48:28;;;;;;;;;18.75;15.00;;;;;7.31;75.95;102497.25;4997770;28;45294;-69
2021/12/14 03:50:55;;;;;;;;;46.25;31.75;;;;;7.25;76.26;102484.63;5000000;28;45335;-69
2021/12/14 03:53:21;;;;;;;;;14.25;14.25;;;;;7.26;76.76;102483.84;4998921;28;45602;-70
2021/12/14 03:55:57;;;;;;;;;15.50;15.50;;;;;7.32;76.73;102493.84;5014666;28;45261;-70
2021/12/14 03:58:30;;;;;;;;;19.25;17.50;;;;;7.34;76.37;102484.34;4995454;28;45188;-70
2021/12/14 04:01:12;;;;;;;;;22.50;16.50;;;;;7.26;76.44;102480.31;4999405;28;45342;-70
2021/12/14 04:03:40;;;;;;;;;14.75;10.50;;;;;7.29;76.64;102491.91;4987660;28;48666;-70
2021/12/14 04:06:08;;;;;;;;;15.00;12.25;;;;;7.12;76.09;102467.16;4999285;28;45301;-70
2021/12/14 04:08:34;;;;;;;;;16.00;11.75;;;;;7.25;76.40;102495.16;4998906;28;45412;-70
2021/12/14 04:11:02;;;;;;;;;18.25;14.75;;;;;7.20;76.58;102493.97;4999023;28;45665;-69
2021/12/14 04:13:35;;;;;;;;;13.75;13.75;;;;;7.22;76.20;102510.72;4999006;28;45379;-69
2021/12/14 04:16:01;;;;;;;;;18.00;14.00;;;;;7.23;76.98;102514.28;4999044;28;45179;-69
2021/12/14 04:18:28;;;;;;;;;20.25;17.00;;;;;7.23;76.86;102519.56;4999277;28;45338;-69
2021/12/14 04:20:55;;;;;;;;;15.00;12.00;;;;;7.17;76.88;102513.06;4999615;28;45356;-69
2021/12/14 04:23:25;;;;;;;;;17.50;13.50;;;;;7.22;76.68;102521.25;4998351;28;45383;-69
2021/12/14 04:25:54;;;;;;;;;9.00;9.00;;;;;7.10;76.38;102509.94;4999014;28;45360;-69
2021/12/14 04:28:25;;;;;;;;;17.00;13.75;;;;;7.10;76.83;102521.34;4998585;28;45354;-69
2021/12/14 04:30:51;;;;;;;;;12.75;9.75;;;;;7.17;75.99;102535.84;4999338;28;45244;-70
2021/12/14 04:33:22;;;;;;;;;17.00;14.25;;;;;7.14;76.08;102536.56;4998157;28;45393;-69
2021/12/14 04:35:48;;;;;;;;;17.25;17.25;;;;;7.04;76.26;102520.97;4999453;28;45235;-70
2021/12/14 04:38:36;;;;;;;;;23.75;19.50;;;;;7.09;76.82;102523.91;4993005;28;45489;-70
2021/12/14 04:52:01;;;;;;;;;13.75;12.25;;;;;7.07;76.54;102530.78;5001820;28;45894;-69
2021/12/14 04:54:36;;;;;;;;;11.50;9.75;;;;;7.03;76.91;102516.53;5001900;28;45448;-70
2021/12/14 04:57:04;;;;;;;;;16.75;14.75;;;;;7.08;76.49;102527.31;5001729;28;45453;-69
2021/12/14 04:59:34;;;;;;;;;28.75;20.00;;;;;7.08;76.84;102522.97;5002467;28;45262;-70
2021/12/14 05:02:14;;;;;;;;;28.00;21.50;;;;;7.05;76.63;102511.34;5001678;28;45156;-70
2021/12/14 05:04:41;;;;;;;;;23.00;18.75;;;;;7.10;76.14;102523.09;4996040;28;45487;-70
2021/12/14 05:07:32;;;;;;;;;13.00;8.25;;;;;7.06;76.58;102518.44;4998494;28;45526;-70
2021/12/14 05:10:00;;;;;;;;;17.00;8.00;;;;;7.04;76.55;102526.22;5002169;28;45446;-70
2021/12/14 05:12:31;;;;;;;;;10.25;9.50;;;;;7.03;75.61;102529.66;5001321;28;45471;-69
2021/12/14 05:15:00;;;;;;;;;15.25;12.75;;;;;7.01;76.16;102525.13;5002124;28;45596;-69
2021/12/14 05:17:31;;;;;;;;;21.50;18.25;;;;;6.87;75.84;102514.59;4994521;28;45306;-69
2021/12/14 05:19:57;;;;;;;;;16.25;13.50;;;;;6.89;76.51;102517.28;5017246;28;45320;-70
2021/12/14 05:22:26;;;;;;;;;18.25;12.75;;;;;6.95;75.88;102529.16;5001298;28;45480;-69
2021/12/14 05:25:02;;;;;;;;;18.75;14.00;;;;;6.97;76.84;102537.13;5001594;28;45574;-70
2021/12/14 05:27:38;;;;;;;;;17.25;14.25;;;;;6.97;76.05;102537.13;5001159;28;45628;-69
2021/12/14 05:30:11;;;;;;;;;19.50;12.25;;;;;6.95;75.55;102538.75;5001956;28;45238;-69
2021/12/14 05:32:39;;;;;;;;;16.50;11.25;;;;;6.87;76.38;102537.34;5001121;28;46344;-69
2021/12/14 05:35:10;;;;;;;;;11.00;8.50;;;;;6.84;76.86;102534.50;5000294;28;48634;-69
2021/12/14 05:37:44;;;;;;;;;13.25;9.50;;;;;6.80;76.37;102535.09;5000694;28;45401;-69
2021/12/14 05:40:19;;;;;;;;;17.00;13.25;;;;;6.85;76.60;102534.59;5001480;28;45338;-70
2021/12/14 05:45:29;;;;;;;;;18.75;14.25;;;;;6.80;76.41;102522.84;5001631;28;45787;-70
2021/12/14 05:47:59;;;;;;;;;17.00;13.00;;;;;6.87;76.35;102537.34;4999735;28;45460;-70
2021/12/14 05:50:29;;;;;;;;;19.25;15.00;;;;;6.84;76.50;102532.78;5015688;28;45285;-70
2021/12/14 05:52:55;;;;;;;;;14.25;13.75;;;;;6.86;76.75;102543.38;5000859;28;45365;-70
2021/12/14 05:55:25;;;;;;;;;32.00;27.75;;;;;6.80;76.56;102545.59;5001014;28;45614;-70
2021/12/14 05:57:53;;;;;;;;;24.00;21.75;;;;;6.73;76.69;102539.03;5000847;28;45496;-70
2021/12/14 06:00:19;;;;;;;;;16.25;13.00;;;;;6.74;76.96;102540.84;5001418;28;45322;-70
2021/12/14 06:02:45;;;;;;;;;17.75;15.00;;;;;6.66;76.42;102529.78;5000817;28;45475;-70
2021/12/14 06:05:16;;;;;;;;;18.75;17.75;;;;;6.76;76.22;102548.84;5001152;28;45549;-70
2021/12/14 06:07:44;;;;;;;;;17.50;15.00;;;;;6.71;76.68;102546.78;5000633;28;45380;-70
2021/12/14 06:10:10;;;;;;;;;24.50;18.50;;;;;6.68;76.83;102548.31;5000904;28;45321;-70
2021/12/14 06:12:38;;;;;;;;;18.50;15.25;;;;;6.69;77.04;102550.13;5000448;28;45727;-70
2021/12/14 06:15:08;;;;;;;;;13.50;12.00;;;;;6.83;75.89;102572.09;5016171;28;47256;-70
2021/12/14 06:17:39;;;;;;;;;14.00;13.25;;;;;6.78;76.83;102569.16;4997451;28;45863;-70
2021/12/14 06:20:18;;;;;;;;;12.25;12.00;;;;;6.69;76.13;102553.69;4997721;28;45218;-70
2021/12/14 06:22:44;;;;;;;;;16.50;16.25;;;;;6.83;76.39;102573.00;5000040;28;45413;-70
2021/12/14 06:25:13;;;;;;;;;14.50;14.00;;;;;6.77;75.90;102563.78;5000896;28;46201;-70
2021/12/14 06:27:39;;;;;;;;;12.50;12.00;;;;;6.83;76.31;102573.00;4993190;28;45267;-70
2021/12/14 06:30:13;;;;;;;;;12.50;12.50;;;;;6.86;76.26;102575.84;5001049;28;45270;-70
2021/12/14 06:32:45;;;;;;;;;13.00;9.00;;;;;6.85;75.92;102573.13;4999943;28;45266;-70
2021/12/14 06:35:17;;;;;;;;;17.25;13.00;;;;;6.84;77.16;102568.66;5000830;28;45558;-70
2021/12/14 06:41:06;;;;;;;;;10.25;9.50;;;;;6.81;76.38;102587.78;5000621;28;45317;-70
2021/12/14 06:43:37;;;;;;;;;13.75;12.75;;;;;6.89;76.31;102598.78;4999311;28;45397;-70
2021/12/14 06:46:07;;;;;;;;;14.00;9.75;;;;;6.90;76.76;102603.25;5015316;28;46993;-70
2021/12/14 06:48:38;;;;;;;;;6.00;6.00;;;;;6.89;76.61;102596.16;5014870;28;45331;-70
2021/12/14 06:51:06;;;;;;;;;12.75;10.50;;;;;6.89;76.21;102594.47;5000190;28;45298;-70
2021/12/14 06:53:33;;;;;;;;;13.50;12.00;;;;;6.81;76.03;102573.72;4998546;28;45338;-70
2021/12/14 06:56:03;;;;;;;;;16.50;13.25;;;;;6.91;76.29;102597.19;5000059;28;45302;-69
2021/12/14 06:58:31;;;;;;;;;15.00;13.00;;;;;6.85;76.37;102597.66;4999677;28;45350;-70
2021/12/14 07:00:59;;;;;;;;;12.25;8.75;;;;;6.93;76.12;102617.50;5000339;28;45365;-69
2021/12/14 07:03:36;;;;;;;;;12.00;12.00;;;;;6.82;75.88;102599.19;4999874;28;45444;-69
2021/12/14 07:06:02;;;;;;;;;17.75;11.75;;;;;6.81;77.05;102606.16;4999537;28;45417;-69
2021/12/14 07:08:29;;;;;;;;;14.75;12.00;;;;;6.86;75.96;102614.34;4999100;28;45502;-70
2021/12/14 07:10:55;;;;;;;;;13.50;11.50;;;;;6.83;76.88;102611.50;5000507;28;45291;-69
2021/12/14 07:13:25;;;;;;;;;13.00;10.25;;;;;6.71;76.36;102598.44;4998480;28;45274;-69
2021/12/14 07:15:51;;;;;;;;;12.00;9.00;;;;;6.70;76.57;102586.13;5007664;28;47027;-69
2021/12/14 07:18:24;;;;;;;;;19.25;13.50;;;;;6.72;76.91;102595.94;4999317;28;45401;-69
2021/12/14 07:20:50;;;;;;;;;14.75;12.25;;;;;6.72;76.75;102597.63;5000526;28;45313;-69
2021/12/14 07:23:26;;;;;;;;;17.00;12.75;;;;;6.67;76.71;102588.53;4999263;28;45486;-70
2021/12/14 07:26:04;;;;;;;;;13.25;12.50;;;;;6.77;76.89;102605.84;5015369;28;47269;-69
2021/12/14 07:28:42;;;;;;;;;16.50;12.75;;;;;6.78;77.12;102605.03;4999686;28;45525;-69
2021/12/14 07:31:21;;;;;;;;;9.00;9.00;;;;;6.79;76.73;102614.75;5014726;28;44709;-69
2021/12/14 07:33:56;;;;;;;;;17.25;14.00;;;;;6.70;77.28;102588.75;4998494;28;45310;-70
2021/12/14 07:36:31;;;;;;;;;15.75;13.00;;;;;6.83;76.67;102609.78;4999489;28;46617;-69
2021/12/14 07:39:13;;;;;;;;;17.50;13.75;;;;;6.79;76.72;102602.50;4995069;28;45464;-69
2021/12/14 07:41:45;;;;;;;;;16.00;13.50;;;;;6.79;76.70;102604.25;5014705;28;45466;-69
2021/12/14 07:44:18;;;;;;;;;9.00;9.00;;;;;6.88;76.24;102613.66;4999791;28;45396;-69
2021/12/14 07:46:44;;;;;;;;;12.25;10.00;;;;;6.88;76.69;102615.38;4999165;28;46383;-70
2021/12/14 07:49:29;;;;;;;;;17.25;15.50;;;;;6.87;76.78;102630.25;4998735;28;45329;-71
2021/12/14 07:51:58;;;;;;;;;18.00;13.00;;;;;6.88;76.73;102625.88;4998829;28;45494;-71
2021/12/14 07:54:31;;;;;;;;;13.75;13.00;;;;;6.85;76.60;102623.97;4997337;28;46194;-71
2021/12/14 07:56:58;;;;;;;;;17.75;14.00;;;;;6.95;76.09;102649.19;4998465;28;45512;-70
2021/12/14 07:59:27;;;;;;;;;15.25;14.25;;;;;6.98;76.59;102644.13;4999080;28;45420;-70
2021/12/14 08:02:16;;;;;;;;;23.75;17.50;;;;;6.90;76.88;102635.69;4998122;28;45192;-70
2021/12/14 08:04:46;;;;;;;;;17.50;16.25;;;;;6.87;76.36;102629.34;4997376;28;45874;-70
2021/12/14 08:07:41;;;;;;;;;20.00;14.50;;;;;6.97;76.66;102658.06;4998053;28;45486;-70
2021/12/14 08:10:24;;;;;;;;;17.00;13.75;;;;;6.99;76.93;102666.06;4998294;28;44819;-72
2021/12/14 08:12:54;;;;;;;;;23.00;18.25;;;;;7.00;76.13;102666.19;4995853;28;45444;-71
2021/12/14 08:15:25;;;;;;;;;21.50;19.50;;;;;6.99;76.29;102671.31;4998696;28;45609;-70
2021/12/14 08:18:23;;;;;;;;;22.75;20.25;;;;;6.93;76.77;102667.47;4996047;28;46699;-71
2021/12/14 08:20:59;;;;;;;;;28.00;24.00;;;;;7.03;76.56;102676.91;4998013;28;45418;-71
2021/12/14 08:23:26;;;;;;;;;23.75;21.00;;;;;7.07;76.22;102681.56;4995903;28;45242;-71
2021/12/14 08:25:59;;;;;;;;;26.75;21.50;;;;;7.06;75.97;102687.63;4998908;28;45520;-71
2021/12/14 08:28:25;;;;;;;;;25.25;19.50;;;;;6.96;76.89;102656.25;4993451;28;47529;-72
2021/12/14 08:31:05;;;;;;;;;23.00;17.75;;;;;7.11;76.98;102680.03;4995071;28;45871;-72
2021/12/14 08:33:32;;;;;;;;;34.00;24.25;;;;;7.07;76.48;102673.66;4998021;28;45463;-71
2021/12/14 08:36:02;;;;;;;;;43.25;33.50;;;;;7.07;76.33;102672.75;4998105;28;45476;-70
2021/12/14 08:38:31;;;;;;;;;24.50;20.25;;;;;7.03;76.84;102658.50;4995876;28;47741;-70
2021/12/14 08:41:07;;;;;;;;;18.75;14.50;;;;;7.11;75.81;102667.84;4998567;28;45515;-73
2021/12/14 08:43:34;;;;;;;;;22.00;18.25;;;;;7.09;76.44;102666.81;4995922;28;45243;-73
2021/12/14 08:46:09;;;;;;;;;17.00;16.75;;;;;7.16;76.25;102684.81;4995867;28;47034;-71
2021/12/14 08:48:42;;;;;;;;;17.50;14.50;;;;;7.02;76.07;102659.28;4995877;28;47158;-71
2021/12/14 08:51:20;;;;;;;;;15.75;13.00;;;;;7.10;76.29;102679.13;4996662;28;45350;-71
2021/12/14 08:53:59;;;;;;;;;23.00;20.50;;;;;7.21;76.73;102705.28;4997218;28;45216;-72
2021/12/14 08:56:29;;;;;;;;;32.00;29.00;;;;;7.15;75.84;102693.50;4996490;28;47462;-72
2021/12/14 08:58:54;;;;;;;;;27.00;24.75;;;;;7.26;76.44;102693.34;4997629;28;45613;-71
2021/12/14 09:01:25;;;;;;;;;35.50;30.25;;;;;7.29;75.97;102691.84;4997613;28;45223;-72
2021/12/14 09:03:56;;;;;;;;;22.75;21.00;;;;;7.23;76.30;102673.00;4998225;28;45391;-72
2021/12/14 09:06:29;;;;;;;;;17.75;14.50;;;;;7.32;75.97;102662.19;4995255;28;45664;-73
2021/12/14 09:08:57;;;;;;;;;19.50;17.50;;;;;7.40;75.74;102666.25;4997511;28;45687;-72
2021/12/14 09:11:28;;;;;;;;;21.75;19.25;;;;;7.40;75.99;102659.25;4997473;28;45375;-76
2021/12/14 09:13:55;;;;;;;;;24.25;22.25;;;;;7.39;76.11;102664.41;4997973;28;45273;-72
2021/12/14 09:16:25;;;;;;;;;27.25;21.25;;;;;7.39;75.79;102660.09;4997610;28;47187;-72
2021/12/14 09:18:58;;;;;;;;;25.75;24.00;;;;;7.49;76.09;102681.75;4998534;28;45719;-72
2021/12/14 09:21:39;;;;;;;;;22.50;19.00;;;;;7.52;75.95;102696.00;4997727;28;46471;-72
2021/12/14 09:24:10;;;;;;;;;23.00;17.50;;;;;7.49;75.13;102680.00;4996348;28;45370;-72
2021/12/14 09:26:38;;;;;;;;;19.75;16.00;;;;;7.51;75.67;102680.13;4988695;28;45410;-72
2021/12/14 09:29:09;;;;;;;;;20.50;19.50;;;;;7.61;75.94;102687.81;5001709;28;45572;-72
2021/12/14 09:31:38;;;;;;;;;20.00;18.00;;;;;7.62;75.58;102689.66;5001195;28;45575;-72
2021/12/14 09:34:07;;;;;;;;;21.25;18.00;;;;;7.68;75.54;102699.69;5001810;28;45391;-72
2021/12/14 09:36:35;;;;;;;;;21.75;17.50;;;;;7.69;74.98;102697.13;5001332;28;45470;-72
2021/12/14 09:39:10;;;;;;;;;19.50;17.25;;;;;7.61;75.36;102686.09;5000672;28;45413;-72
2021/12/14 09:41:39;;;;;;;;;20.50;18.50;;;;;7.73;75.00;102701.81;5016210;28;45578;-72
2021/12/14 09:44:09;;;;;;;;;21.00;16.50;;;;;7.67;74.01;102689.94;5001677;28;45223;-72
2021/12/14 09:46:35;;;;;;;;;23.75;20.00;;;;;7.75;75.19;102705.44;5000885;28;45549;-72
2021/12/14 09:49:04;;;;;;;;;28.50;21.25;;;;;7.63;75.13;102680.94;5001421;28;45351;-71
2021/12/14 09:51:55;;;;;;;;;21.50;20.50;;;;;7.89;75.04;102718.59;5000878;28;45391;-72
2021/12/14 09:54:24;;;;;;;;;22.75;17.75;;;;;7.75;74.67;102686.09;5000889;28;45266;-72
2021/12/14 09:56:54;;;;;;;;;25.25;21.00;;;;;7.96;74.65;102715.56;4998077;28;46951;-72
2021/12/14 09:59:21;;;;;;;;;24.75;20.00;;;;;7.91;75.41;102704.72;4998436;28;46542;-72
2021/12/14 10:01:57;;;;;;;;;24.25;23.50;;;;;7.90;75.33;102704.63;4997764;28;45464;-72
2021/12/14 10:04:36;;;;;;;;;27.50;22.50;;;;;7.94;74.33;102712.81;5001451;28;45400;-72
2021/12/14 10:07:04;;;;;;;;;25.50;23.75;;;;;7.97;74.21;102712.13;5000490;28;45498;-72
2021/12/14 10:09:38;;;;;;;;;23.50;19.00;;;;;7.99;74.67;102713.13;5000712;28;45296;-72
2021/12/14 10:15:14;;;;;;;;;25.00;20.25;;;;;7.85;74.00;102688.53;5006910;28;45583;-72
2021/12/14 10:17:42;;;;;;;;;28.00;26.25;;;;;7.88;74.07;102699.28;5000284;28;45358;-71
2021/12/14 10:20:11;;;;;;;;;25.25;23.00;;;;;7.93;74.72;102699.59;5000866;28;46619;-72
2021/12/14 10:22:38;;;;;;;;;26.25;21.00;;;;;8.03;75.03;102717.78;4999668;28;46476;-71
2021/12/14 10:25:09;;;;;;;;;32.00;26.75;;;;;7.89;74.40;102690.53;5000331;28;45264;-71
2021/12/14 10:27:36;;;;;;;;;27.00;23.75;;;;;8.01;74.54;102700.97;5000217;28;45455;-71
2021/12/14 10:30:08;;;;;;;;;27.75;22.50;;;;;8.09;74.46;102710.28;5000785;28;47234;-72
2021/12/14 10:32:36;;;;;;;;;33.00;26.75;;;;;8.13;74.40;102714.03;4996056;28;46032;-71
2021/12/14 10:35:09;;;;;;;;;27.50;26.00;;;;;7.95;74.22;102685.69;4999666;28;45456;-72
2021/12/14 10:45:35;;;;;;;;;30.25;25.50;;;;;8.13;73.38;102692.97;5000741;28;44765;-71
2021/12/14 10:48:00;;;;;;;;;27.25;24.50;;;;;8.26;73.87;102707.03;5000078;28;45471;-71
2021/12/14 10:50:31;;;;;;;;;30.75;22.25;;;;;8.32;74.22;102710.84;5000501;28;45179;-72
2021/12/14 10:52:57;;;;;;;;;23.75;22.75;;;;;8.30;74.34;102709.03;4995992;28;45088;-71
2021/12/14 10:55:36;;;;;;;;;27.00;21.50;;;;;8.36;73.79;102703.25;5000265;28;45356;-71
2021/12/14 10:58:04;;;;;;;;;24.00;21.00;;;;;8.39;73.58;102713.13;4999750;28;45279;-71
2021/12/14 11:00:38;;;;;;;;;29.25;22.75;;;;;8.38;73.78;102693.72;5000168;28;46464;-71
2021/12/14 11:03:10;;;;;;;;;29.00;22.00;;;;;8.54;73.79;102724.63;4999063;28;45499;-71
2021/12/14 11:05:37;;;;;;;;;30.25;25.00;;;;;8.44;73.94;102699.41;4996429;28;45307;-72
2021/12/14 11:08:07;;;;;;;;;27.75;23.50;;;;;8.45;73.16;102692.41;4997279;28;45369;-72
2021/12/14 11:10:37;;;;;;;;;21.25;18.75;;;;;8.61;73.01;102715.38;4997587;28;47111;-72
2021/12/14 11:13:07;;;;;;;;;25.50;21.75;;;;;8.67;72.98;102714.03;4997065;28;45362;-72
2021/12/14 11:15:39;;;;;;;;;21.25;16.00;;;;;8.67;73.59;102705.22;4999850;28;45315;-72
2021/12/14 11:18:13;;;;;;;;;14.00;13.75;;;;;8.68;73.47;102707.97;4998732;28;45618;-72
2021/12/14 11:20:53;;;;;;;;;29.00;22.50;;;;;8.72;73.62;102716.97;4991906;28;45331;-72
2021/12/14 11:23:19;;;;;;;;;25.75;23.00;;;;;8.79;73.26;102713.88;4998266;28;45405;-72
2021/12/14 11:25:46;;;;;;;;;27.00;23.00;;;;;8.80;73.01;102714.81;4999368;28;45280;-72
2021/12/14 11:28:18;;;;;;;;;24.25;21.50;;;;;8.76;72.76;102700.53;4998754;28;45485;-72
2021/12/14 11:30:53;;;;;;;;;23.50;22.75;;;;;8.82;72.99;102716.75;4999156;28;46746;-72
2021/12/14 11:33:37;;;;;;;;;28.00;22.50;;;;;8.84;72.04;102709.81;4998320;28;45364;-72
2021/12/14 11:36:30;;;;;;;;;32.25;29.50;;;;;8.76;73.17;102686.44;4998772;28;45255;-72
2021/12/14 11:39:08;;;;;;;;;28.25;24.75;;;;;8.90;72.85;102704.00;5013502;28;47133;-72
2021/12/14 11:41:37;;;;;;;;;26.25;23.75;;;;;8.99;72.97;102704.59;4998635;28;46430;-72
2021/12/14 11:44:08;;;;;;;;;33.75;30.00;;;;;9.01;72.51;102699.41;4996350;28;45400;-72
2021/12/14 11:46:47;;;;;;;;;27.75;23.50;;;;;8.98;72.36;102686.94;4997846;28;45335;-72
2021/12/14 11:49:12;;;;;;;;;26.00;23.00;;;;;8.91;72.03;102675.09;4994534;28;45492;-71
2021/12/14 11:51:38;;;;;;;;;26.50;24.00;;;;;9.00;72.20;102690.59;4995738;28;46229;-72
2021/12/14 11:54:04;;;;;;;;;32.25;26.00;;;;;8.86;71.97;102663.38;4997637;28;45572;-72
2021/12/14 11:56:31;;;;;;;;;38.00;31.75;;;;;8.98;72.69;102676.38;4998448;28;45365;-71
2021/12/14 11:59:05;;;;;;;;;36.00;29.75;;;;;9.10;72.47;102694.69;4998579;28;45528;-72
2021/12/14 12:01:39;;;;;;;;;39.75;33.75;;;;;9.02;71.88;102672.19;4998244;28;46402;-72
2021/12/14 12:04:20;;;;;;;;;30.50;28.25;;;;;9.00;72.25;102658.03;4987543;28;45373;-72
2021/12/14 12:09:36;;;;;;;;;34.50;25.25;;;;;9.26;72.31;102678.94;4995465;28;45440;-72
2021/12/14 12:12:04;;;;;;;;;38.75;31.50;;;;;9.28;71.57;102674.69;4998197;28;46650;-72
2021/12/14 12:14:35;;;;;;;;;56.50;46.25;;;;;9.32;72.08;102674.03;4998426;28;45333;-71
2021/12/14 12:17:07;;;;;;;;;44.50;37.75;;;;;9.33;72.61;102662.69;4998378;28;45459;-71
2021/12/14 12:19:32;;;;;;;;;42.50;31.25;;;;;9.21;72.09;102656.66;5013683;28;46206;-71